createdAt,value
2019-02-11T00:00:53.708Z,987.76
2019-02-11T00:01:53.670Z,987.79
2019-02-11T00:02:53.659Z,987.79
2019-02-11T00:03:59.407Z,987.78
2019-02-11T00:04:54.633Z,987.72
2019-02-11T00:05:53.671Z,987.85
2019-02-11T00:06:53.616Z,987.86
2019-02-11T00:07:53.605Z,987.90
2019-02-11T00:08:53.591Z,987.96
2019-02-11T00:09:53.585Z,987.99
2019-02-11T00:10:53.594Z,988.01
2019-02-11T00:11:53.586Z,988.10
2019-02-11T00:12:53.549Z,988.08
2019-02-11T00:13:53.533Z,988.15
2019-02-11T00:14:53.522Z,988.16
2019-02-11T00:15:53.539Z,988.13
2019-02-11T00:16:53.501Z,988.24
2019-02-11T00:17:53.525Z,988.21
2019-02-11T00:18:53.481Z,988.22
2019-02-11T00:19:53.467Z,988.33
2019-02-11T00:20:53.481Z,988.34
2019-02-11T00:21:53.447Z,988.32
2019-02-11T00:22:53.433Z,988.34
2019-02-11T00:23:53.447Z,988.41
2019-02-11T00:24:53.409Z,988.35
2019-02-11T00:25:53.426Z,988.39
2019-02-11T00:26:53.388Z,988.41
2019-02-11T00:27:53.377Z,988.45
2019-02-11T00:28:53.367Z,988.51
2019-02-11T00:29:53.392Z,988.51
2019-02-11T00:30:53.370Z,988.65
2019-02-11T00:31:53.337Z,988.63
2019-02-11T00:32:53.358Z,988.61
2019-02-11T00:33:53.312Z,988.61
2019-02-11T00:34:53.301Z,988.66
2019-02-11T00:35:53.341Z,988.69
2019-02-11T00:36:53.298Z,988.75
2019-02-11T00:37:53.266Z,988.80
2019-02-11T00:38:53.255Z,988.75
2019-02-11T00:39:53.245Z,988.83
2019-02-11T00:40:53.236Z,988.83
2019-02-11T00:41:53.271Z,988.86
2019-02-11T00:42:53.209Z,988.90
2019-02-11T00:43:53.199Z,988.88
2019-02-11T00:44:53.188Z,988.93
2019-02-11T00:45:53.179Z,988.94
2019-02-11T00:46:53.190Z,989.01
2019-02-11T00:47:53.191Z,988.96
2019-02-11T00:48:53.144Z,989.01
2019-02-11T00:49:53.134Z,989.01
2019-02-11T00:50:53.123Z,989.15
2019-02-11T00:51:53.134Z,989.01
2019-02-11T00:52:53.101Z,989.07
2019-02-11T00:53:53.106Z,989.04
2019-02-11T00:54:53.078Z,989.11
2019-02-11T00:55:53.066Z,989.16
2019-02-11T00:56:53.083Z,989.21
2019-02-11T00:57:53.043Z,989.17
2019-02-11T00:58:53.033Z,989.27
2019-02-11T00:59:53.052Z,989.23
2019-02-11T01:00:53.013Z,989.31
2019-02-11T01:01:53.027Z,989.29
2019-02-11T01:02:52.989Z,989.27
2019-02-11T01:03:52.982Z,989.30
2019-02-11T01:04:52.997Z,989.45
2019-02-11T01:05:52.957Z,989.44
2019-02-11T01:06:52.973Z,989.48
2019-02-11T01:07:52.935Z,989.45
2019-02-11T01:08:52.925Z,989.43
2019-02-11T01:09:52.913Z,989.53
2019-02-11T01:10:52.932Z,989.56
2019-02-11T01:11:52.916Z,989.57
2019-02-11T01:12:52.883Z,989.51
2019-02-11T01:13:52.873Z,989.60
2019-02-11T01:14:52.863Z,989.66
2019-02-11T01:15:52.852Z,989.64
2019-02-11T01:16:52.898Z,989.72
2019-02-11T01:17:52.825Z,989.79
2019-02-11T01:18:52.814Z,989.74
2019-02-11T01:19:52.808Z,989.93
2019-02-11T01:20:52.793Z,989.87
2019-02-11T01:21:52.812Z,989.86
2019-02-11T01:22:52.798Z,989.91
2019-02-11T01:23:52.762Z,989.93
2019-02-11T01:24:52.752Z,989.79
2019-02-11T01:25:52.740Z,989.92
2019-02-11T01:26:52.751Z,989.85
2019-02-11T01:27:52.719Z,989.91
2019-02-11T01:28:52.741Z,989.98
2019-02-11T01:29:52.701Z,990.07
2019-02-11T01:30:52.686Z,990.04
2019-02-11T01:31:52.699Z,990.07
2019-02-11T01:32:52.663Z,990.11
2019-02-11T01:33:52.652Z,990.10
2019-02-11T01:34:52.676Z,990.11
2019-02-11T01:35:52.636Z,990.14
2019-02-11T01:36:52.643Z,990.17
2019-02-11T01:37:52.610Z,990.24
2019-02-11T01:38:52.597Z,990.33
2019-02-11T01:39:52.585Z,990.22
2019-02-11T01:40:52.597Z,990.27
2019-02-11T01:41:52.587Z,990.32
2019-02-11T01:42:52.556Z,990.29
2019-02-11T01:43:52.544Z,990.28
2019-02-11T01:44:52.535Z,990.40
2019-02-11T01:45:52.519Z,990.39
2019-02-11T01:46:52.563Z,990.40
2019-02-11T01:47:52.502Z,990.33
2019-02-11T01:48:52.495Z,990.43
2019-02-11T01:49:52.480Z,990.48
2019-02-11T01:50:52.465Z,990.46
2019-02-11T01:51:52.481Z,990.53
2019-02-11T01:52:52.486Z,990.48
2019-02-11T01:53:52.432Z,990.56
2019-02-11T01:54:52.445Z,990.58
2019-02-11T01:55:52.412Z,990.63
2019-02-11T01:56:52.426Z,990.63
2019-02-11T01:57:52.387Z,990.67
2019-02-11T01:58:52.404Z,990.71
2019-02-11T01:59:52.373Z,990.70
2019-02-11T02:00:52.358Z,990.71
2019-02-11T02:01:52.369Z,990.75
2019-02-11T02:02:52.335Z,990.77
2019-02-11T02:03:52.329Z,990.83
2019-02-11T02:04:52.345Z,990.88
2019-02-11T02:05:52.306Z,990.80
2019-02-11T02:06:52.315Z,990.86
2019-02-11T02:07:52.282Z,990.85
2019-02-11T02:08:52.268Z,990.85
2019-02-11T02:09:52.256Z,990.85
2019-02-11T02:10:52.301Z,990.90
2019-02-11T02:11:52.263Z,990.92
2019-02-11T02:12:52.227Z,990.93
2019-02-11T02:13:52.214Z,990.93
2019-02-11T02:14:52.206Z,990.93
2019-02-11T02:15:52.192Z,991.00
2019-02-11T02:16:52.234Z,991.02
2019-02-11T02:17:52.174Z,991.03
2019-02-11T02:18:52.185Z,991.04
2019-02-11T02:19:52.148Z,991.05
2019-02-11T02:20:52.138Z,991.10
2019-02-11T02:21:52.128Z,991.10
2019-02-11T02:22:52.173Z,991.13
2019-02-11T02:23:52.104Z,991.16
2019-02-11T02:24:52.095Z,991.16
2019-02-11T02:25:52.082Z,991.15
2019-02-11T02:26:52.072Z,991.17
2019-02-11T02:27:52.082Z,991.17
2019-02-11T02:28:52.084Z,991.20
2019-02-11T02:29:52.039Z,991.15
2019-02-11T02:30:52.026Z,991.23
2019-02-11T02:31:52.018Z,991.18
2019-02-11T02:32:52.026Z,991.17
2019-02-11T02:33:52.019Z,991.22
2019-02-11T02:34:52.028Z,991.21
2019-02-11T02:35:51.975Z,991.22
2019-02-11T02:36:51.961Z,991.26
2019-02-11T02:37:51.971Z,991.23
2019-02-11T02:38:51.937Z,991.28
2019-02-11T02:39:51.928Z,991.22
2019-02-11T02:40:51.963Z,991.23
2019-02-11T02:41:51.913Z,991.22
2019-02-11T02:42:51.926Z,991.29
2019-02-11T02:43:55.591Z,991.31
2019-02-11T02:44:51.874Z,991.31
2019-02-11T02:45:51.860Z,991.34
2019-02-11T02:46:51.913Z,991.30
2019-02-11T02:47:51.861Z,991.37
2019-02-11T02:48:51.833Z,991.40
2019-02-11T02:49:51.824Z,991.31
2019-02-11T02:50:51.808Z,991.34
2019-02-11T02:51:51.800Z,991.34
2019-02-11T02:52:51.847Z,991.32
2019-02-11T02:53:51.774Z,991.40
2019-02-11T02:54:51.766Z,991.41
2019-02-11T02:55:51.751Z,991.44
2019-02-11T02:56:51.740Z,991.51
2019-02-11T02:57:51.755Z,991.45
2019-02-11T02:58:51.733Z,991.48
2019-02-11T02:59:51.708Z,991.55
2019-02-11T03:00:51.695Z,991.61
2019-02-11T03:01:51.686Z,991.59
2019-02-11T03:02:51.701Z,991.59
2019-02-11T03:03:51.660Z,991.60
2019-02-11T03:04:51.681Z,991.62
2019-02-11T03:05:52.968Z,991.57
2019-02-11T03:06:51.642Z,991.65
2019-02-11T03:07:51.652Z,991.67
2019-02-11T03:08:51.607Z,991.72
2019-02-11T03:09:51.604Z,991.82
2019-02-11T03:10:51.616Z,991.80
2019-02-11T03:11:51.574Z,991.81
2019-02-11T03:12:51.591Z,991.85
2019-02-11T03:13:51.551Z,991.75
2019-02-11T03:14:51.562Z,991.80
2019-02-11T03:15:51.530Z,991.82
2019-02-11T03:16:51.546Z,991.84
2019-02-11T03:17:51.541Z,991.89
2019-02-11T03:18:51.499Z,991.90
2019-02-11T03:19:51.487Z,991.87
2019-02-11T03:20:51.485Z,991.83
2019-02-11T03:21:51.465Z,991.93
2019-02-11T03:22:51.487Z,991.84
2019-02-11T03:23:51.445Z,991.85
2019-02-11T03:24:51.431Z,991.85
2019-02-11T03:25:51.444Z,991.85
2019-02-11T03:26:51.409Z,991.85
2019-02-11T03:27:51.424Z,991.88
2019-02-11T03:28:51.438Z,991.88
2019-02-11T03:29:51.377Z,991.87
2019-02-11T03:30:51.400Z,991.97
2019-02-11T03:31:51.391Z,991.95
2019-02-11T03:32:51.368Z,991.98
2019-02-11T03:33:51.332Z,992.03
2019-02-11T03:34:51.371Z,991.95
2019-02-11T03:35:51.310Z,992.00
2019-02-11T03:36:51.299Z,992.01
2019-02-11T03:37:51.314Z,992.04
2019-02-11T03:38:51.290Z,991.98
2019-02-11T03:39:51.269Z,992.07
2019-02-11T03:40:51.276Z,992.04
2019-02-11T03:41:51.248Z,992.06
2019-02-11T03:42:51.258Z,992.07
2019-02-11T03:43:51.221Z,992.15
2019-02-11T03:44:51.217Z,992.18
2019-02-11T03:45:51.205Z,992.19
2019-02-11T03:46:51.236Z,992.18
2019-02-11T03:47:51.207Z,992.18
2019-02-11T03:48:51.170Z,992.16
2019-02-11T03:49:51.155Z,992.24
2019-02-11T03:50:51.150Z,992.27
2019-02-11T03:51:51.137Z,992.31
2019-02-11T03:52:51.186Z,992.36
2019-02-11T03:53:51.112Z,992.39
2019-02-11T03:54:51.103Z,992.43
2019-02-11T03:55:51.094Z,992.38
2019-02-11T03:56:51.080Z,992.42
2019-02-11T03:57:51.105Z,992.49
2019-02-11T03:58:58.092Z,992.46
2019-02-11T03:59:58.079Z,992.55
2019-02-11T04:00:58.067Z,992.52
2019-02-11T04:01:51.024Z,992.52
2019-02-11T04:02:58.069Z,992.58
2019-02-11T04:03:51.004Z,992.55
2019-02-11T04:04:51.035Z,992.65
2019-02-11T04:05:50.980Z,992.65
2019-02-11T04:06:50.970Z,992.67
2019-02-11T04:07:50.983Z,992.62
2019-02-11T04:08:50.973Z,992.69
2019-02-11T04:09:50.936Z,992.70
2019-02-11T04:10:50.966Z,992.70
2019-02-11T04:11:50.916Z,992.70
2019-02-11T04:12:50.903Z,992.75
2019-02-11T04:13:50.912Z,992.76
2019-02-11T04:14:50.882Z,992.83
2019-02-11T04:15:50.914Z,992.85
2019-02-11T04:16:50.859Z,992.92
2019-02-11T04:17:50.850Z,992.93
2019-02-11T04:18:50.858Z,992.97
2019-02-11T04:19:50.825Z,992.96
2019-02-11T04:20:50.815Z,992.93
2019-02-11T04:21:50.839Z,992.97
2019-02-11T04:22:50.789Z,993.01
2019-02-11T04:23:50.815Z,993.03
2019-02-11T04:24:50.767Z,993.04
2019-02-11T04:25:50.761Z,993.06
2019-02-11T04:26:50.744Z,993.07
2019-02-11T04:27:50.766Z,993.11
2019-02-11T04:28:50.750Z,993.12
2019-02-11T04:29:50.713Z,993.17
2019-02-11T04:30:50.701Z,993.21
2019-02-11T04:31:50.692Z,993.22
2019-02-11T04:32:50.680Z,993.26
2019-02-11T04:33:50.721Z,993.27
2019-02-11T04:34:50.662Z,993.30
2019-02-11T04:35:50.646Z,993.32
2019-02-11T04:36:50.633Z,993.32
2019-02-11T04:37:50.621Z,993.35
2019-02-11T04:38:50.639Z,993.34
2019-02-11T04:39:50.615Z,993.33
2019-02-11T04:40:50.595Z,993.36
2019-02-11T04:41:50.577Z,993.37
2019-02-11T04:42:50.568Z,993.41
2019-02-11T04:43:50.574Z,993.42
2019-02-11T04:44:50.546Z,993.49
2019-02-11T04:45:50.556Z,993.46
2019-02-11T04:46:50.520Z,993.50
2019-02-11T04:47:50.511Z,993.58
2019-02-11T04:48:50.522Z,993.52
2019-02-11T04:49:50.485Z,993.53
2019-02-11T04:50:50.474Z,993.61
2019-02-11T04:51:50.483Z,993.63
2019-02-11T04:52:50.473Z,993.66
2019-02-11T04:53:50.465Z,993.71
2019-02-11T04:54:50.429Z,993.70
2019-02-11T04:55:50.427Z,993.73
2019-02-11T04:56:50.408Z,993.77
2019-02-11T04:57:50.400Z,993.84
2019-02-11T04:58:50.439Z,993.82
2019-02-11T04:59:50.376Z,993.87
2019-02-11T05:00:50.365Z,993.86
2019-02-11T05:01:50.356Z,993.84
2019-02-11T05:02:50.355Z,993.89
2019-02-11T05:03:50.354Z,993.94
2019-02-11T05:04:50.342Z,993.95
2019-02-11T05:05:50.309Z,993.98
2019-02-11T05:06:50.306Z,994.01
2019-02-11T05:07:50.290Z,994.06
2019-02-11T05:08:50.299Z,994.04
2019-02-11T05:09:50.264Z,994.03
2019-02-11T05:10:50.268Z,994.08
2019-02-11T05:11:50.245Z,994.08
2019-02-11T05:12:50.237Z,994.10
2019-02-11T05:13:50.246Z,994.09
2019-02-11T05:14:50.214Z,994.12
2019-02-11T05:15:50.198Z,994.09
2019-02-11T05:16:50.214Z,994.11
2019-02-11T05:17:50.180Z,994.16
2019-02-11T05:18:50.192Z,994.16
2019-02-11T05:19:50.161Z,994.13
2019-02-11T05:20:50.146Z,994.14
2019-02-11T05:21:50.131Z,994.16
2019-02-11T05:22:50.133Z,994.18
2019-02-11T05:23:50.181Z,994.21
2019-02-11T05:24:50.101Z,994.23
2019-02-11T05:25:50.088Z,994.19
2019-02-11T05:26:50.078Z,994.24
2019-02-11T05:27:50.065Z,994.22
2019-02-11T05:28:50.076Z,994.26
2019-02-11T05:29:50.083Z,994.23
2019-02-11T05:30:50.030Z,994.28
2019-02-11T05:31:50.023Z,994.26
2019-02-11T05:32:50.015Z,994.27
2019-02-11T05:33:50.019Z,994.39
2019-02-11T05:34:49.984Z,994.33
2019-02-11T05:35:49.991Z,994.35
2019-02-11T05:36:49.964Z,994.39
2019-02-11T05:37:49.953Z,994.36
2019-02-11T05:38:49.965Z,994.47
2019-02-11T05:39:49.931Z,994.44
2019-02-11T05:40:49.943Z,994.47
2019-02-11T05:41:49.913Z,994.52
2019-02-11T05:42:49.977Z,994.56
2019-02-11T05:43:49.898Z,994.56
2019-02-11T05:44:54.002Z,994.64
2019-02-11T05:45:49.860Z,994.64
2019-02-11T05:46:49.867Z,994.66
2019-02-11T05:47:49.860Z,994.67
2019-02-11T05:48:49.837Z,994.69
2019-02-11T05:49:49.838Z,994.67
2019-02-11T05:50:49.849Z,994.73
2019-02-11T05:51:49.793Z,994.71
2019-02-11T05:52:49.783Z,994.72
2019-02-11T05:53:49.772Z,994.79
2019-02-11T05:54:49.782Z,994.78
2019-02-11T05:55:49.755Z,994.82
2019-02-11T05:56:49.758Z,994.82
2019-02-11T05:57:49.738Z,994.80
2019-02-11T05:58:49.715Z,994.83
2019-02-11T05:59:49.732Z,994.87
2019-02-11T06:00:49.695Z,994.83
2019-02-11T06:01:49.680Z,994.92
2019-02-11T06:02:49.669Z,994.91
2019-02-11T06:03:49.678Z,994.92
2019-02-11T06:04:49.673Z,994.94
2019-02-11T06:05:49.639Z,994.90
2019-02-11T06:06:49.625Z,994.94
2019-02-11T06:07:49.612Z,994.88
2019-02-11T06:08:49.603Z,994.99
2019-02-11T06:09:49.629Z,994.99
2019-02-11T06:10:49.581Z,995.01
2019-02-11T06:11:49.569Z,995.02
2019-02-11T06:12:49.560Z,995.04
2019-02-11T06:13:49.545Z,995.10
2019-02-11T06:14:49.684Z,995.11
2019-02-11T06:15:49.536Z,995.10
2019-02-11T06:16:49.536Z,995.11
2019-02-11T06:17:49.507Z,995.08
2019-02-11T06:18:49.492Z,995.10
2019-02-11T06:19:49.481Z,995.13
2019-02-11T06:20:49.494Z,995.17
2019-02-11T06:21:49.476Z,995.11
2019-02-11T06:22:49.466Z,995.17
2019-02-11T06:23:49.436Z,995.17
2019-02-11T06:24:49.425Z,995.21
2019-02-11T06:25:49.434Z,995.22
2019-02-11T06:26:49.401Z,995.21
2019-02-11T06:27:49.412Z,995.29
2019-02-11T06:28:49.380Z,995.31
2019-02-11T06:29:49.370Z,995.34
2019-02-11T06:30:49.380Z,995.33
2019-02-11T06:31:49.345Z,995.29
2019-02-11T06:32:49.335Z,995.39
2019-02-11T06:33:49.356Z,995.38
2019-02-11T06:34:49.342Z,995.43
2019-02-11T06:35:49.323Z,995.43
2019-02-11T06:36:49.290Z,995.43
2019-02-11T06:37:49.279Z,995.46
2019-02-11T06:38:49.268Z,995.46
2019-02-11T06:39:49.256Z,995.48
2019-02-11T06:40:49.426Z,995.45
2019-02-11T06:41:49.233Z,995.53
2019-02-11T06:42:49.227Z,995.56
2019-02-11T06:43:49.257Z,995.53
2019-02-11T06:44:49.308Z,995.55
2019-02-11T06:45:49.234Z,995.59
2019-02-11T06:46:49.179Z,995.60
2019-02-11T06:47:49.167Z,995.64
2019-02-11T06:48:49.188Z,995.72
2019-02-11T06:49:49.146Z,995.78
2019-02-11T06:50:49.167Z,995.85
2019-02-11T06:51:49.121Z,995.86
2019-02-11T06:52:49.129Z,995.86
2019-02-11T06:53:49.143Z,995.90
2019-02-11T06:54:49.092Z,995.96
2019-02-11T06:55:49.247Z,995.93
2019-02-11T06:56:49.063Z,995.97
2019-02-11T06:57:49.056Z,995.98
2019-02-11T06:58:49.078Z,996.04
2019-02-11T06:59:49.035Z,996.02
2019-02-11T07:00:49.050Z,996.09
2019-02-11T07:01:49.038Z,996.13
2019-02-11T07:02:49.001Z,996.16
2019-02-11T07:03:48.994Z,996.18
2019-02-11T07:04:49.054Z,996.22
2019-02-11T07:05:49.097Z,996.27
2019-02-11T07:06:49.067Z,996.27
2019-02-11T07:07:48.966Z,996.30
2019-02-11T07:08:48.931Z,996.31
2019-02-11T07:09:49.785Z,996.28
2019-02-11T07:10:55.506Z,996.32
2019-02-11T07:11:49.894Z,996.31
2019-02-11T07:12:48.889Z,996.33
2019-02-11T07:13:48.905Z,996.39
2019-02-11T07:14:48.867Z,996.44
2019-02-11T07:15:48.878Z,996.51
2019-02-11T07:16:48.887Z,996.54
2019-02-11T07:17:48.848Z,996.59
2019-02-11T07:18:48.827Z,996.64
2019-02-11T07:19:48.811Z,996.68
2019-02-11T07:20:48.824Z,996.77
2019-02-11T07:21:48.790Z,996.78
2019-02-11T07:22:48.836Z,996.82
2019-02-11T07:23:48.766Z,996.85
2019-02-11T07:24:48.754Z,996.84
2019-02-11T07:25:48.767Z,996.85
2019-02-11T07:26:48.730Z,996.82
2019-02-11T07:27:48.721Z,996.78
2019-02-11T07:28:48.751Z,996.85
2019-02-11T07:29:48.699Z,996.84
2019-02-11T07:30:48.709Z,996.85
2019-02-11T07:31:48.717Z,996.89
2019-02-11T07:32:48.668Z,996.93
2019-02-11T07:33:48.654Z,996.92
2019-02-11T07:34:48.672Z,996.97
2019-02-11T07:35:48.767Z,997.04
2019-02-11T07:36:48.622Z,996.98
2019-02-11T07:37:48.617Z,997.07
2019-02-11T07:38:48.631Z,997.08
2019-02-11T07:39:48.588Z,997.01
2019-02-11T07:40:48.601Z,997.10
2019-02-11T07:41:48.606Z,997.12
2019-02-11T07:42:48.554Z,997.17
2019-02-11T07:43:48.550Z,997.20
2019-02-11T07:44:48.595Z,997.22
2019-02-11T07:45:48.544Z,997.25
2019-02-11T07:46:48.510Z,997.27
2019-02-11T07:47:48.555Z,997.29
2019-02-11T07:48:48.487Z,997.33
2019-02-11T07:49:48.474Z,997.35
2019-02-11T07:50:48.541Z,997.40
2019-02-11T07:51:48.454Z,997.37
2019-02-11T07:52:48.442Z,997.46
2019-02-11T07:53:48.432Z,997.48
2019-02-11T07:54:48.416Z,997.47
2019-02-11T07:55:48.438Z,997.49
2019-02-11T07:56:48.425Z,997.58
2019-02-11T07:57:48.389Z,997.60
2019-02-11T07:58:48.373Z,997.58
2019-02-11T07:59:48.364Z,997.62
2019-02-11T08:00:48.352Z,997.67
2019-02-11T08:01:48.361Z,997.70
2019-02-11T08:02:48.367Z,997.69
2019-02-11T08:03:48.318Z,997.69
2019-02-11T08:04:48.310Z,997.69
2019-02-11T08:05:48.292Z,997.71
2019-02-11T08:06:48.309Z,997.72
2019-02-11T08:07:48.271Z,997.71
2019-02-11T08:08:48.284Z,997.76
2019-02-11T08:09:48.250Z,997.80
2019-02-11T08:10:48.237Z,997.85
2019-02-11T08:11:48.255Z,997.82
2019-02-11T08:12:48.215Z,997.84
2019-02-11T08:13:48.204Z,997.83
2019-02-11T08:14:48.239Z,997.88
2019-02-11T08:15:48.180Z,997.88
2019-02-11T08:16:48.193Z,997.93
2019-02-11T08:17:48.160Z,997.97
2019-02-11T08:18:48.149Z,998.01
2019-02-11T08:19:48.135Z,998.04
2019-02-11T08:20:48.151Z,998.11
2019-02-11T08:21:48.138Z,998.10
2019-02-11T08:22:48.104Z,998.13
2019-02-11T08:23:48.091Z,998.14
2019-02-11T08:24:48.087Z,998.15
2019-02-11T08:25:48.073Z,998.13
2019-02-11T08:26:48.081Z,998.14
2019-02-11T08:27:48.074Z,998.20
2019-02-11T08:28:48.035Z,998.09
2019-02-11T08:29:48.025Z,998.13
2019-02-11T08:30:48.064Z,998.10
2019-02-11T08:31:48.055Z,998.06
2019-02-11T08:32:47.994Z,998.07
2019-02-11T08:33:48.041Z,998.09
2019-02-11T08:34:47.967Z,998.09
2019-02-11T08:35:47.956Z,998.16
2019-02-11T08:36:48.441Z,998.11
2019-02-11T08:37:47.937Z,998.13
2019-02-11T08:38:47.922Z,998.18
2019-02-11T08:39:47.931Z,998.11
2019-02-11T08:40:47.903Z,998.14
2019-02-11T08:41:47.911Z,998.20
2019-02-11T08:42:47.914Z,998.16
2019-02-11T08:43:47.867Z,998.15
2019-02-11T08:44:47.861Z,998.24
2019-02-11T08:45:47.903Z,998.27
2019-02-11T08:46:47.871Z,998.25
2019-02-11T08:47:47.944Z,998.31
2019-02-11T08:48:47.811Z,998.32
2019-02-11T08:49:47.804Z,998.29
2019-02-11T08:50:47.789Z,998.31
2019-02-11T08:51:47.804Z,998.28
2019-02-11T08:52:47.790Z,998.25
2019-02-11T08:53:47.754Z,998.32
2019-02-11T08:54:47.745Z,998.26
2019-02-11T08:55:47.734Z,998.32
2019-02-11T08:56:47.956Z,998.38
2019-02-11T08:57:48.931Z,998.36
2019-02-11T08:58:48.694Z,998.41
2019-02-11T08:59:48.455Z,998.47
2019-02-11T09:00:48.175Z,998.51
2019-02-11T09:01:48.814Z,998.52
2019-02-11T09:02:48.267Z,998.55
2019-02-11T09:03:47.818Z,998.56
2019-02-11T09:04:49.013Z,998.55
2019-02-11T09:05:50.540Z,998.69
2019-02-11T09:06:48.259Z,998.66
2019-02-11T09:07:48.568Z,998.69
2019-02-11T09:08:48.710Z,998.75
2019-02-11T09:09:47.808Z,998.71
2019-02-11T09:10:47.892Z,998.81
2019-02-11T09:11:48.316Z,998.83
2019-02-11T09:12:48.038Z,998.88
2019-02-11T09:13:48.175Z,998.87
2019-02-11T09:14:48.058Z,998.87
2019-02-11T09:15:55.084Z,998.93
2019-02-11T09:16:49.225Z,998.96
2019-02-11T09:17:48.119Z,998.94
2019-02-11T09:18:48.071Z,999.02
2019-02-11T09:19:48.831Z,999.04
2019-02-11T09:20:47.963Z,999.07
2019-02-11T09:21:48.538Z,998.96
2019-02-11T09:22:49.083Z,999.01
2019-02-11T09:23:47.967Z,999.07
2019-02-11T09:24:47.623Z,999.08
2019-02-11T09:25:48.294Z,999.02
2019-02-11T09:26:47.705Z,999.05
2019-02-11T09:27:47.502Z,999.08
2019-02-11T09:28:49.510Z,999.10
2019-02-11T09:29:47.505Z,999.14
2019-02-11T09:30:48.958Z,999.21
2019-02-11T09:31:49.388Z,999.16
2019-02-11T09:32:48.626Z,999.25
2019-02-11T09:33:48.560Z,999.31
2019-02-11T09:34:48.164Z,999.30
2019-02-11T09:35:47.375Z,999.24
2019-02-11T09:36:47.514Z,999.29
2019-02-11T09:37:48.168Z,999.34
2019-02-11T09:38:47.395Z,999.35
2019-02-11T09:39:48.214Z,999.38
2019-02-11T09:40:47.917Z,999.42
2019-02-11T09:41:49.339Z,999.44
2019-02-11T09:42:47.235Z,999.40
2019-02-11T09:43:47.241Z,999.46
2019-02-11T09:44:47.212Z,999.46
2019-02-11T09:45:47.176Z,999.47
2019-02-11T09:46:47.188Z,999.52
2019-02-11T09:47:47.175Z,999.45
2019-02-11T09:48:47.140Z,999.53
2019-02-11T09:49:47.129Z,999.66
2019-02-11T09:50:47.118Z,999.56
2019-02-11T09:51:47.142Z,999.57
2019-02-11T09:52:47.118Z,999.60
2019-02-11T09:53:47.084Z,999.64
2019-02-11T09:54:47.074Z,999.67
2019-02-11T09:55:47.067Z,999.76
2019-02-11T09:56:47.056Z,999.74
2019-02-11T09:57:47.099Z,999.77
2019-02-11T09:58:47.047Z,999.82
2019-02-11T09:59:47.023Z,999.77
2019-02-11T10:00:47.008Z,999.82
2019-02-11T10:01:46.997Z,999.89
2019-02-11T10:02:47.008Z,999.84
2019-02-11T10:03:47.062Z,999.90
2019-02-11T10:04:46.963Z,999.89
2019-02-11T10:05:46.957Z,999.93
2019-02-11T10:06:46.976Z,999.93
2019-02-11T10:07:46.957Z,999.88
2019-02-11T10:08:46.919Z,999.96
2019-02-11T10:09:47.930Z,999.92
2019-02-11T10:10:46.932Z,999.96
2019-02-11T10:11:46.886Z,999.95
2019-02-11T10:12:46.897Z,999.93
2019-02-11T10:13:46.882Z,1000.03
2019-02-11T10:14:46.852Z,1000.07
2019-02-11T10:15:46.848Z,1000.07
2019-02-11T10:16:46.877Z,1000.09
2019-02-11T10:17:46.842Z,1000.10
2019-02-11T10:18:46.807Z,1000.09
2019-02-11T10:19:46.797Z,1000.13
2019-02-11T10:20:46.783Z,1000.14
2019-02-11T10:21:46.777Z,1000.19
2019-02-11T10:22:46.820Z,1000.18
2019-02-11T10:23:46.761Z,1000.21
2019-02-11T10:24:46.747Z,1000.23
2019-02-11T10:25:46.736Z,1000.26
2019-02-11T10:26:47.208Z,1000.29
2019-02-11T10:27:46.730Z,1000.29
2019-02-11T10:28:46.720Z,1000.30
2019-02-11T10:29:46.689Z,1000.26
2019-02-11T10:30:46.745Z,1000.30
2019-02-11T10:31:46.663Z,1000.27
2019-02-11T10:32:46.672Z,1000.31
2019-02-11T10:33:46.644Z,1000.33
2019-02-11T10:34:46.707Z,1000.35
2019-02-11T10:35:46.622Z,1000.37
2019-02-11T10:36:46.624Z,1000.36
2019-02-11T10:37:46.618Z,1000.49
2019-02-11T10:38:46.586Z,1000.45
2019-02-11T10:39:46.620Z,1000.44
2019-02-11T10:40:46.680Z,1000.45
2019-02-11T10:41:46.554Z,1000.44
2019-02-11T10:42:46.578Z,1000.46
2019-02-11T10:43:46.567Z,1000.48
2019-02-11T10:44:46.530Z,1000.49
2019-02-11T10:45:48.693Z,1000.54
2019-02-11T10:46:46.495Z,1000.56
2019-02-11T10:47:46.508Z,1000.59
2019-02-11T10:48:46.526Z,1000.62
2019-02-11T10:49:46.461Z,1000.68
2019-02-11T10:50:46.454Z,1000.64
2019-02-11T10:51:46.490Z,1000.70
2019-02-11T10:52:46.465Z,1000.71
2019-02-11T10:53:46.416Z,1000.79
2019-02-11T10:54:46.408Z,1000.81
2019-02-11T10:55:46.399Z,1000.81
2019-02-11T10:56:46.408Z,1000.90
2019-02-11T10:57:46.395Z,1000.86
2019-02-11T10:58:46.366Z,1001.00
2019-02-11T10:59:46.358Z,1000.84
2019-02-11T11:00:46.354Z,1000.91
2019-02-11T11:01:46.332Z,1000.94
2019-02-11T11:02:46.381Z,1000.89
2019-02-11T11:03:46.305Z,1000.93
2019-02-11T11:04:46.295Z,1000.96
2019-02-11T11:05:46.291Z,1000.94
2019-02-11T11:06:46.274Z,1000.99
2019-02-11T11:07:46.290Z,1001.00
2019-02-11T11:08:46.285Z,1001.06
2019-02-11T11:09:46.241Z,1001.01
2019-02-11T11:10:46.234Z,1001.02
2019-02-11T11:11:46.219Z,1001.02
2019-02-11T11:12:46.207Z,1001.04
2019-02-11T11:13:46.220Z,1001.00
2019-02-11T11:14:46.212Z,1001.09
2019-02-11T11:15:46.177Z,1001.09
2019-02-11T11:16:46.162Z,1001.14
2019-02-11T11:17:46.162Z,1001.01
2019-02-11T11:18:46.166Z,1001.07
2019-02-11T11:19:46.136Z,1001.09
2019-02-11T11:20:46.226Z,1001.08
2019-02-11T11:21:46.112Z,1001.11
2019-02-11T11:22:46.097Z,1001.12
2019-02-11T11:23:46.118Z,1001.07
2019-02-11T11:24:46.073Z,1001.10
2019-02-11T11:25:46.063Z,1001.11
2019-02-11T11:26:46.099Z,1001.09
2019-02-11T11:27:46.040Z,1001.06
2019-02-11T11:28:46.074Z,1001.03
2019-02-11T11:29:46.021Z,1000.96
2019-02-11T11:30:46.018Z,1001.03
2019-02-11T11:31:46.001Z,1001.12
2019-02-11T11:32:46.009Z,1001.14
2019-02-11T11:33:45.996Z,1001.18
2019-02-11T11:34:45.968Z,1001.20
2019-02-11T11:35:45.953Z,1001.31
2019-02-11T11:36:45.967Z,1001.29
2019-02-11T11:37:45.934Z,1001.31
2019-02-11T11:38:45.987Z,1001.31
2019-02-11T11:39:46.056Z,1001.37
2019-02-11T11:40:45.900Z,1001.31
2019-02-11T11:41:45.887Z,1001.37
2019-02-11T11:42:45.878Z,1001.34
2019-02-11T11:43:45.893Z,1001.43
2019-02-11T11:44:45.939Z,1001.37
2019-02-11T11:45:45.843Z,1001.45
2019-02-11T11:46:47.326Z,1001.43
2019-02-11T11:47:45.825Z,1001.45
2019-02-11T11:48:45.984Z,1001.47
2019-02-11T11:49:45.804Z,1001.46
2019-02-11T11:50:45.894Z,1001.46
2019-02-11T11:51:45.780Z,1001.46
2019-02-11T11:52:45.764Z,1001.50
2019-02-11T11:53:45.775Z,1001.59
2019-02-11T11:54:45.743Z,1001.61
2019-02-11T11:55:45.740Z,1001.60
2019-02-11T11:56:45.845Z,1001.59
2019-02-11T11:57:45.710Z,1001.59
2019-02-11T11:58:45.763Z,1001.58
2019-02-11T11:59:45.687Z,1001.55
2019-02-11T12:00:45.710Z,1001.54
2019-02-11T12:01:45.673Z,1001.52
2019-02-11T12:03:00.767Z,1001.46
2019-02-11T12:03:46.710Z,1001.47
2019-02-11T12:04:45.630Z,1001.47
2019-02-11T12:05:45.686Z,1001.44
2019-02-11T12:06:45.624Z,1001.47
2019-02-11T12:07:45.611Z,1001.44
2019-02-11T12:08:45.659Z,1001.41
2019-02-11T12:09:45.579Z,1001.45
2019-02-11T12:10:45.568Z,1001.39
2019-02-11T12:11:45.556Z,1001.43
2019-02-11T12:12:45.553Z,1001.45
2019-02-11T12:13:45.555Z,1001.43
2019-02-11T12:14:45.558Z,1001.48
2019-02-11T12:15:45.510Z,1001.45
2019-02-11T12:16:56.169Z,1001.57
2019-02-11T12:17:46.536Z,1001.59
2019-02-11T12:18:45.500Z,1001.61
2019-02-11T12:19:45.466Z,1001.62
2019-02-11T12:20:45.513Z,1001.64
2019-02-11T12:21:45.447Z,1001.65
2019-02-11T12:22:45.555Z,1001.69
2019-02-11T12:23:45.450Z,1001.73
2019-02-11T12:24:45.449Z,1001.72